Time;durP1;ratioP1;P1;durP2;ratioP2;P2;SDS_P1;SDS_P2;PMS_P1;PMS_P2;Temp;Humidity;BMP_temperature;BMP_pressure;BME280_temperature;BME280_humidity;BME280_pressure;Samples;Min_cycle;Max_cycle;Signal;HPM_P1;HPM_P2
2022/03/19 03:46:36;;;;;;;84.63;48.65;;;3.90;92.30;;;;;;5276024;23;20073;-79
2022/03/19 03:49:02;;;;;;;80.85;46.85;;;3.90;92.30;;;;;;4840181;29;20206;-79
2022/03/19 03:51:28;;;;;;;83.95;49.40;;;3.90;92.40;;;;;;4841414;29;20033;-79
2022/03/19 03:53:54;;;;;;;84.68;47.00;;;3.90;92.70;;;;;;4818690;29;20038;-79
2022/03/19 03:56:19;;;;;;;86.30;46.78;;;3.90;92.70;;;;;;4837201;29;20042;-79
2022/03/19 03:58:45;;;;;;;76.00;44.53;;;3.90;92.50;;;;;;4841013;29;20111;-79
2022/03/19 04:01:11;;;;;;;79.30;46.08;;;3.90;92.40;;;;;;4811679;29;20349;-79
2022/03/19 04:03:37;;;;;;;83.57;46.47;;;3.90;92.50;;;;;;4843278;29;20041;-79
2022/03/19 04:06:03;;;;;;;78.05;45.42;;;4.00;92.60;;;;;;4836857;29;20403;-79
2022/03/19 04:08:29;;;;;;;81.25;45.40;;;4.10;92.50;;;;;;4843032;29;20042;-80
2022/03/19 04:10:54;;;;;;;84.35;47.40;;;4.20;92.40;;;;;;4841956;29;20332;-80
2022/03/19 04:13:20;;;;;;;90.25;49.38;;;4.20;92.30;;;;;;4824160;29;20044;-80
2022/03/19 04:15:46;;;;;;;80.43;44.35;;;4.30;92.00;;;;;;4828720;29;20105;-79
2022/03/19 04:18:14;;;;;;;85.20;46.75;;;4.40;91.80;;;;;;4836765;29;20038;-79
2022/03/19 04:20:40;;;;;;;75.78;44.08;;;4.40;91.60;;;;;;4869755;29;20356;-80
2022/03/19 04:23:06;;;;;;;75.28;44.13;;;4.50;91.30;;;;;;4850564;29;20061;-79
2022/03/19 04:25:32;;;;;;;76.53;43.08;;;4.60;91.10;;;;;;4851672;29;20041;-78
2022/03/19 04:27:58;;;;;;;75.20;43.13;;;4.60;90.70;;;;;;4836519;29;20034;-79
2022/03/19 04:30:27;;;;;;;70.35;40.03;;;4.60;90.60;;;;;;4836275;29;20030;-79
2022/03/19 04:32:55;;;;;;;73.55;42.03;;;4.60;90.50;;;;;;4827006;29;20329;-79
2022/03/19 04:38:10;;;;;;;76.43;43.42;;;4.60;90.40;;;;;;4851503;29;20034;-79
2022/03/19 04:40:37;;;;;;;76.47;42.58;;;4.60;90.40;;;;;;4857708;29;20018;-78
2022/03/19 04:43:03;;;;;;;83.10;43.53;;;4.60;90.30;;;;;;4851443;29;20337;-78
2022/03/19 04:45:29;;;;;;;75.53;42.00;;;4.60;90.20;;;;;;4836053;29;20041;-79
2022/03/19 04:47:55;;;;;;;75.55;43.25;;;4.60;90.10;;;;;;4838560;29;20041;-79
2022/03/19 04:50:22;;;;;;;75.68;42.53;;;4.60;90.10;;;;;;4838973;29;20039;-80
2022/03/19 04:52:49;;;;;;;73.07;42.35;;;4.60;90.00;;;;;;4850809;29;20038;-80
2022/03/19 04:55:15;;;;;;;76.07;44.05;;;4.60;89.90;;;;;;4869003;29;20040;-79
2022/03/19 04:57:40;;;;;;;79.82;43.92;;;4.60;89.50;;;;;;4851319;29;20036;-80
2022/03/19 05:00:09;;;;;;;81.00;42.85;;;4.60;89.20;;;;;;4872637;29;20108;-79
2022/03/19 05:02:35;;;;;;;82.40;45.15;;;4.60;89.10;;;;;;4844549;29;20028;-80
2022/03/19 05:05:01;;;;;;;93.70;45.72;;;4.70;89.10;;;;;;4859578;29;20081;-79
2022/03/19 05:07:28;;;;;;;76.97;45.60;;;4.70;89.00;;;;;;4836698;29;20030;-80
2022/03/19 05:12:43;;;;;;;83.15;45.88;;;4.70;88.90;;;;;;4881947;29;20131;-80
2022/03/19 05:15:16;;;;;;;79.07;44.50;;;4.80;88.70;;;;;;4851415;29;20060;-80
2022/03/19 05:17:43;;;;;;;76.13;42.42;;;4.80;88.50;;;;;;4868048;29;20450;-80
2022/03/19 05:20:10;;;;;;;;;;;4.70;88.00;;;;;;4854362;29;20240;-80
2022/03/19 05:22:36;;;;;;;80.47;43.72;;;4.70;87.70;;;;;;4854018;29;19915;-79
2022/03/19 05:25:03;;;;;;;74.53;43.33;;;4.70;87.90;;;;;;4850445;29;20128;-79
2022/03/19 05:27:29;;;;;;;84.18;45.55;;;4.70;87.90;;;;;;4851867;29;20029;-79
2022/03/19 05:29:55;;;;;;;83.38;44.83;;;4.70;87.70;;;;;;4854196;29;20045;-80
2022/03/19 05:32:21;;;;;;;79.03;45.67;;;4.80;88.00;;;;;;4843017;29;20384;-80
2022/03/19 05:34:48;;;;;;;75.05;43.63;;;4.80;87.80;;;;;;4845934;29;20052;-81
2022/03/19 05:37:15;;;;;;;80.85;44.47;;;4.80;87.50;;;;;;4860322;29;20035;-81
2022/03/19 05:39:41;;;;;;;81.65;43.08;;;4.90;87.00;;;;;;4853787;29;20328;-81
2022/03/19 05:42:08;;;;;;;82.80;44.53;;;4.90;86.80;;;;;;4854393;29;20029;-81
2022/03/19 05:44:34;;;;;;;79.63;41.95;;;5.00;86.30;;;;;;4870896;29;20333;-81
2022/03/19 05:47:00;;;;;;;78.28;42.75;;;5.00;85.70;;;;;;4869603;29;20045;-81
2022/03/19 05:49:28;;;;;;;72.03;40.72;;;5.10;85.70;;;;;;4845405;29;20072;-81
2022/03/19 05:51:55;;;;;;;82.05;46.00;;;5.20;85.40;;;;;;4861983;29;20100;-79
2022/03/19 05:54:21;;;;;;;;;;;5.30;85.30;;;;;;4850022;29;20029;-79
2022/03/19 05:56:47;;;;;;;70.10;41.43;;;5.30;84.20;;;;;;4847193;29;19908;-79
2022/03/19 05:59:13;;;;;;;69.65;39.67;;;5.30;84.30;;;;;;4862735;29;20286;-81
2022/03/19 06:01:42;;;;;;;79.35;41.08;;;5.40;83.70;;;;;;4842060;29;20030;-81
2022/03/19 06:04:08;;;;;;;74.85;41.60;;;5.40;83.50;;;;;;4850258;29;20028;-80
2022/03/19 06:06:35;;;;;;;84.03;42.85;;;5.40;83.30;;;;;;4863437;29;20041;-80
2022/03/19 06:09:01;;;;;;;72.28;40.50;;;5.40;82.70;;;;;;4854372;29;20049;-81
2022/03/19 06:11:27;;;;;;;69.97;39.00;;;5.40;82.50;;;;;;4839089;29;20096;-81
2022/03/19 06:13:54;;;;;;;70.22;39.47;;;5.40;82.20;;;;;;4846530;29;20321;-80
2022/03/19 06:16:20;;;;;;;72.90;40.22;;;5.50;81.70;;;;;;4856659;29;20036;-79
2022/03/19 06:18:50;;;;;;;75.93;38.72;;;5.60;81.20;;;;;;4854106;29;20033;-80
2022/03/19 06:21:19;;;;;;;69.38;39.90;;;5.60;80.30;;;;;;4850194;29;20340;-81
2022/03/19 06:23:46;;;;;;;72.90;40.15;;;5.70;80.20;;;;;;4834955;29;20069;-80
2022/03/19 06:26:13;;;;;;;67.72;37.42;;;5.80;79.00;;;;;;4839628;29;20100;-79
2022/03/19 06:28:39;;;;;;;67.45;37.95;;;5.80;79.50;;;;;;4851492;29;20038;-80
2022/03/19 06:31:05;;;;;;;78.32;42.00;;;5.90;79.00;;;;;;4833310;29;20284;-80
2022/03/19 06:33:33;;;;;;;74.60;39.40;;;6.00;78.10;;;;;;4821759;29;20241;-80
2022/03/19 06:38:46;;;;;;;69.00;38.22;;;6.10;76.80;;;;;;4843624;29;20129;-81
2022/03/19 06:41:12;;;;;;;65.97;36.67;;;6.10;76.30;;;;;;4846885;29;20022;-80
2022/03/19 06:43:38;;;;;;;63.78;36.97;;;6.10;74.60;;;;;;4856437;29;20041;-80
2022/03/19 06:46:05;;;;;;;63.05;36.83;;;6.20;73.70;;;;;;4855643;29;20053;-85
2022/03/19 06:48:30;;;;;;;59.53;34.92;;;6.30;72.70;;;;;;4852886;29;20049;-80
2022/03/19 06:50:56;;;;;;;67.90;36.80;;;6.30;72.80;;;;;;4839749;29;20071;-80
2022/03/19 06:53:23;;;;;;;65.78;35.42;;;6.30;70.40;;;;;;4847704;29;20026;-80
2022/03/19 06:55:49;;;;;;;59.58;35.65;;;6.30;70.70;;;;;;4855512;29;20018;-81
2022/03/19 06:58:15;;;;;;;72.33;37.13;;;6.40;71.40;;;;;;4870406;29;20061;-82
2022/03/19 07:00:41;;;;;;;68.97;34.22;;;6.40;71.50;;;;;;4857510;29;20338;-80
2022/03/19 07:03:08;;;;;;;54.58;32.42;;;6.50;70.60;;;;;;4838601;29;20089;-80
2022/03/19 07:05:34;;;;;;;58.67;33.50;;;6.60;70.80;;;;;;4837979;29;20029;-80
2022/03/19 07:08:03;;;;;;;65.32;34.60;;;6.60;70.00;;;;;;4850340;29;20041;-79
2022/03/19 07:10:29;;;;;;;61.78;33.40;;;6.60;68.90;;;;;;4852448;29;20137;-81
2022/03/19 07:12:57;;;;;;;62.88;34.85;;;6.60;68.30;;;;;;4838295;29;20049;-80
2022/03/19 07:15:29;;;;;;;61.40;34.20;;;6.60;68.90;;;;;;4856948;29;20033;-81
2022/03/19 07:18:00;;;;;;;57.00;32.22;;;6.70;68.40;;;;;;4836054;29;20042;-80
2022/03/19 07:20:26;;;;;;;62.50;34.67;;;6.70;66.70;;;;;;4833318;29;20057;-81
2022/03/19 07:22:58;;;;;;;61.67;35.70;;;6.80;67.30;;;;;;4835275;29;20035;-81
2022/03/19 07:25:28;;;;;;;61.35;34.58;;;6.90;68.00;;;;;;4842525;29;20294;-82
2022/03/19 07:27:57;;;;;;;66.07;34.33;;;7.00;67.60;;;;;;4868139;29;20029;-81
2022/03/19 07:30:23;;;;;;;63.78;33.85;;;7.10;66.40;;;;;;4854048;29;20067;-81
2022/03/19 07:32:50;;;;;;;68.15;33.50;;;7.10;66.90;;;;;;4836161;29;20033;-81
2022/03/19 07:35:16;;;;;;;55.70;31.48;;;7.20;65.70;;;;;;4842400;29;20044;-80
2022/03/19 07:37:43;;;;;;;62.70;33.47;;;7.30;64.60;;;;;;4852888;29;20521;-80
2022/03/19 07:40:12;;;;;;;59.65;33.30;;;7.30;64.40;;;;;;4859821;29;20359;-81
2022/03/19 07:42:39;;;;;;;53.13;27.33;;;7.30;63.90;;;;;;4853481;29;20034;-80
2022/03/19 07:45:07;;;;;;;53.35;29.98;;;7.40;61.70;;;;;;4858634;29;20030;-80
2022/03/19 07:47:33;;;;;;;;;;;7.50;62.00;;;;;;4846183;29;20068;-81
2022/03/19 07:50:00;;;;;;;50.65;28.05;;;7.50;58.80;;;;;;4846214;29;19930;-82
2022/03/19 07:52:27;;;;;;;55.17;27.75;;;7.60;59.40;;;;;;4838452;29;20046;-81
2022/03/19 07:54:54;;;;;;;;;;;7.70;59.70;;;;;;4838732;29;20037;-81
2022/03/19 07:57:23;;;;;;;47.38;26.50;;;7.70;57.50;;;;;;4839305;29;19950;-80
2022/03/19 07:59:50;;;;;;;54.60;28.98;;;7.80;58.20;;;;;;4842154;29;20088;-81
2022/03/19 08:02:17;;;;;;;53.75;28.48;;;7.90;58.80;;;;;;4837295;29;20029;-81
2022/03/19 08:04:43;;;;;;;48.63;28.20;;;8.10;58.70;;;;;;4852792;29;20109;-80
2022/03/19 08:07:09;;;;;;;51.70;27.48;;;8.20;58.20;;;;;;4841538;29;20025;-81
2022/03/19 08:09:36;;;;;;;50.78;27.42;;;8.20;57.50;;;;;;4823910;29;20037;-80
2022/03/19 08:12:02;;;;;;;50.85;27.67;;;8.30;57.60;;;;;;4824129;29;20041;-82
2022/03/19 08:14:29;;;;;;;53.67;27.43;;;8.40;56.80;;;;;;4867979;29;20049;-80
2022/03/19 08:16:55;;;;;;;53.00;28.05;;;8.50;55.90;;;;;;4865154;29;20195;-82
2022/03/19 08:19:25;;;;;;;47.80;26.80;;;8.40;56.20;;;;;;4859102;29;20037;-82
2022/03/19 08:21:52;;;;;;;52.33;27.98;;;8.50;55.60;;;;;;4851291;29;20033;-81
2022/03/19 08:24:22;;;;;;;63.13;27.95;;;8.60;55.40;;;;;;4864996;29;20225;-80
2022/03/19 08:26:48;;;;;;;51.75;27.15;;;8.60;55.10;;;;;;4859603;29;20034;-81
2022/03/19 08:29:14;;;;;;;46.83;25.98;;;8.80;55.40;;;;;;4864402;29;20329;-82
2022/03/19 08:31:39;;;;;;;59.70;29.25;;;9.00;55.20;;;;;;4860278;29;20032;-82
2022/03/19 08:34:06;;;;;;;59.63;27.70;;;9.10;55.90;;;;;;4866664;29;20073;-82
2022/03/19 08:36:32;;;;;;;55.17;29.25;;;9.30;55.70;;;;;;4873816;29;20233;-81
2022/03/19 08:41:43;;;;;;;49.50;27.08;;;9.50;53.70;;;;;;4873651;29;20109;-82
2022/03/19 08:44:09;;;;;;;45.00;27.10;;;9.50;52.60;;;;;;4873664;29;20045;-80
2022/03/19 08:46:35;;;;;;;49.05;26.45;;;9.60;52.80;;;;;;4872370;29;20431;-81
2022/03/19 08:49:01;;;;;;;50.63;25.13;;;9.60;52.30;;;;;;4846452;29;20037;-83
2022/03/19 08:51:39;;;;;;;42.08;23.48;;;9.80;53.40;;;;;;4834617;29;20108;-81
2022/03/19 08:54:11;;;;;;;45.17;23.33;;;10.00;50.20;;;;;;4867614;29;20033;-80
2022/03/19 08:56:38;;;;;;;41.65;23.23;;;10.10;49.80;;;;;;4852920;29;20041;-82
2022/03/19 08:59:05;;;;;;;44.22;22.50;;;10.30;48.70;;;;;;4875823;29;20022;-80
2022/03/19 09:01:31;;;;;;;44.15;22.90;;;10.40;48.80;;;;;;4855175;29;20034;-80
2022/03/19 09:03:57;;;;;;;41.90;22.25;;;10.50;46.40;;;;;;4862806;29;20038;-81
2022/03/19 09:06:23;;;;;;;45.08;24.35;;;10.50;46.10;;;;;;4865295;29;20218;-81
2022/03/19 09:08:49;;;;;;;45.08;23.85;;;10.50;46.80;;;;;;4821970;29;20042;-81
2022/03/19 09:11:18;;;;;;;42.80;23.52;;;10.70;46.80;;;;;;4824093;29;20048;-81
2022/03/19 09:13:44;;;;;;;42.53;23.58;;;10.80;46.40;;;;;;4843760;29;20040;-81
2022/03/19 09:16:11;;;;;;;44.85;22.67;;;10.90;45.90;;;;;;4843603;29;20344;-81
2022/03/19 09:18:36;;;;;;;36.60;21.15;;;10.90;45.50;;;;;;4869351;29;20036;-80
2022/03/19 09:21:03;;;;;;;43.10;22.95;;;10.90;46.60;;;;;;4852442;29;20044;-82
2022/03/19 09:23:28;;;;;;;41.08;22.42;;;11.10;46.70;;;;;;4835777;29;20113;-81
2022/03/19 09:25:54;;;;;;;38.90;21.65;;;11.30;46.00;;;;;;4843153;29;20325;-82
2022/03/19 09:28:20;;;;;;;43.45;22.92;;;11.50;45.50;;;;;;4837525;29;20270;-81
2022/03/19 09:30:46;;;;;;;44.85;22.58;;;11.60;45.30;;;;;;4854731;29;20206;-80
2022/03/19 09:33:12;;;;;;;42.78;23.02;;;11.60;44.70;;;;;;4816815;29;20069;-82
2022/03/19 09:35:38;;;;;;;39.25;21.08;;;11.70;45.00;;;;;;4822416;29;20049;-82
2022/03/19 09:38:04;;;;;;;39.00;21.50;;;11.90;44.80;;;;;;4834516;29;20038;-82
2022/03/19 09:40:30;;;;;;;36.10;19.47;;;11.80;42.80;;;;;;4857893;29;20225;-81
2022/03/19 09:42:57;;;;;;;35.30;19.15;;;11.80;42.20;;;;;;4842473;29;20109;-82
2022/03/19 09:45:26;;;;;;;39.63;20.45;;;11.70;41.20;;;;;;4845604;29;20041;-83
2022/03/19 09:47:53;;;;;;;39.15;19.90;;;11.70;41.10;;;;;;4849816;29;20238;-82
2022/03/19 09:50:20;;;;;;;41.90;20.83;;;11.70;42.90;;;;;;4825751;29;20281;-81
2022/03/19 09:52:51;;;;;;;35.72;20.95;;;11.80;41.20;;;;;;4848089;29;20345;-81
2022/03/19 09:55:18;;;;;;;37.75;19.20;;;11.70;41.40;;;;;;4852867;29;20103;-81
2022/03/19 09:57:44;;;;;;;;;;;11.80;42.00;;;;;;4854078;29;20029;-81
2022/03/19 10:00:11;;;;;;;39.30;20.23;;;12.00;42.20;;;;;;4855211;29;20214;-81
2022/03/19 10:03:01;;;;;;;40.00;20.85;;;12.20;42.20;;;;;;4853878;29;20237;-81
2022/03/19 10:08:39;;;;;;;41.15;20.42;;;12.50;40.40;;;;;;4852259;29;20049;-79
2022/03/19 10:11:06;;;;;;;35.10;18.95;;;12.50;39.40;;;;;;4839472;29;20040;-81
2022/03/19 10:13:32;;;;;;;;;;;12.50;39.50;;;;;;4854373;29;20210;-80
2022/03/19 10:15:58;;;;;;;38.30;19.40;;;12.40;38.10;;;;;;4837978;29;19904;-80
2022/03/19 10:18:29;;;;;;;36.63;21.10;;;12.40;39.60;;;;;;4854172;29;20137;-81
2022/03/19 10:20:58;;;;;;;36.05;20.17;;;12.50;40.10;;;;;;4863685;29;20092;-79
2022/03/19 10:23:35;;;;;;;35.53;20.20;;;12.60;39.60;;;;;;4874312;29;20233;-81
2022/03/19 10:26:01;;;;;;;34.28;19.23;;;12.70;40.10;;;;;;4841034;29;20043;-81
2022/03/19 10:28:35;;;;;;;34.03;19.73;;;12.70;39.10;;;;;;4868284;29;20345;-80
2022/03/19 10:31:01;;;;;;;34.08;18.67;;;12.70;37.50;;;;;;4849787;29;20076;-81
2022/03/19 10:33:31;;;;;;;37.27;19.13;;;12.70;37.90;;;;;;4855340;29;20041;-81
2022/03/19 10:36:09;;;;;;;33.85;18.55;;;12.70;37.80;;;;;;4870543;29;20310;-81
2022/03/19 10:38:42;;;;;;;38.33;19.42;;;12.70;37.60;;;;;;4873831;29;20052;-81
2022/03/19 10:41:08;;;;;;;39.35;19.92;;;12.90;38.40;;;;;;4865721;29;20053;-80
2022/03/19 10:43:34;;;;;;;32.80;20.23;;;13.00;38.30;;;;;;4852071;29;20333;-80
2022/03/19 10:46:03;;;;;;;36.13;19.58;;;13.00;38.30;;;;;;4835173;29;20057;-82
2022/03/19 10:48:29;;;;;;;39.95;20.08;;;13.10;37.60;;;;;;4870217;29;20038;-80
2022/03/19 10:50:57;;;;;;;31.10;19.33;;;13.20;38.30;;;;;;4839427;29;20105;-80
2022/03/19 10:53:24;;;;;;;35.25;21.35;;;13.20;38.90;;;;;;4852885;29;20148;-82
2022/03/19 10:55:50;;;;;;;34.05;20.17;;;13.20;38.70;;;;;;4838652;29;20109;-81
2022/03/19 10:58:16;;;;;;;31.73;19.80;;;13.20;37.10;;;;;;4840851;29;20032;-80
2022/03/19 11:00:43;;;;;;;35.28;20.73;;;13.30;38.60;;;;;;4852969;29;20278;-82
2022/03/19 11:03:17;;;;;;;36.50;18.70;;;13.20;36.50;;;;;;4837906;29;20329;-81
2022/03/19 11:05:45;;;;;;;31.98;18.88;;;13.20;37.00;;;;;;4848198;29;20037;-81
2022/03/19 11:08:11;;;;;;;;;;;13.20;36.60;;;;;;4856078;29;20037;-81
2022/03/19 11:10:37;;;;;;;34.73;19.00;;;13.20;34.90;;;;;;4815336;29;19919;-81
2022/03/19 11:13:06;;;;;;;47.07;17.37;;;13.20;36.00;;;;;;4828451;29;20329;-81
2022/03/19 11:15:36;;;;;;;31.48;17.35;;;13.30;35.00;;;;;;4869186;29;20040;-81
2022/03/19 11:18:06;;;;;;;28.45;17.25;;;13.30;36.20;;;;;;4868270;29;20030;-81
2022/03/19 11:20:33;;;;;;;30.65;17.08;;;13.30;34.00;;;;;;4852350;29;20037;-81
2022/03/19 11:23:01;;;;;;;36.00;19.67;;;13.30;35.30;;;;;;4824246;29;20046;-81
2022/03/19 11:25:42;;;;;;;32.50;18.10;;;13.50;35.30;;;;;;4881414;29;20324;-81
2022/03/19 11:28:10;;;;;;;31.67;17.77;;;13.60;35.90;;;;;;4857625;29;20336;-81
2022/03/19 11:30:58;;;;;;;32.22;18.50;;;13.70;35.00;;;;;;4854675;29;20071;-81
2022/03/19 11:33:27;;;;;;;30.73;19.23;;;13.70;34.70;;;;;;4853584;29;20037;-80
2022/03/19 11:36:06;;;;;;;33.22;19.25;;;13.90;36.20;;;;;;4839840;29;20104;-81
2022/03/19 11:38:39;;;;;;;39.90;20.48;;;14.10;36.20;;;;;;4836813;29;20364;-80
2022/03/19 11:41:22;;;;;;;34.72;19.75;;;14.10;35.80;;;;;;4853128;29;20060;-82
2022/03/19 11:43:50;;;;;;;35.65;19.90;;;14.10;36.50;;;;;;4852048;29;20042;-80
2022/03/19 11:46:17;;;;;;;36.42;21.42;;;14.20;37.10;;;;;;4870952;29;20045;-81
2022/03/19 11:48:51;;;;;;;36.65;19.40;;;14.30;35.30;;;;;;4840165;29;20164;-82
2022/03/19 11:51:18;;;;;;;33.40;18.52;;;14.40;35.50;;;;;;4858164;29;20034;-81
2022/03/19 11:54:11;;;;;;;38.58;20.25;;;14.10;33.90;;;;;;4845905;29;20299;-81
2022/03/19 11:56:42;;;;;;;35.42;19.63;;;14.00;35.70;;;;;;4839702;29;20041;-82
2022/03/19 11:59:35;;;;;;;37.97;18.60;;;14.10;35.70;;;;;;4851751;29;20040;-80
2022/03/19 12:02:01;;;;;;;38.03;20.73;;;14.30;34.90;;;;;;4796453;29;20297;-82
2022/03/19 12:04:52;;;;;;;36.53;19.88;;;14.30;36.00;;;;;;4790266;30;20043;-82
2022/03/19 12:07:36;;;;;;;33.70;20.17;;;14.30;35.70;;;;;;4810994;29;20279;-81
2022/03/19 12:10:08;;;;;;;36.83;18.80;;;14.30;34.30;;;;;;4779326;30;20095;-81
2022/03/19 12:12:34;;;;;;;40.35;19.10;;;14.40;35.00;;;;;;4787685;29;20072;-82
2022/03/19 12:15:20;;;;;;;36.10;19.73;;;14.40;34.90;;;;;;4802278;29;20047;-82
2022/03/19 12:17:45;;;;;;;26.88;17.52;;;14.40;35.30;;;;;;4793777;29;20039;-81
2022/03/19 12:20:12;;;;;;;32.33;17.35;;;14.80;35.30;;;;;;4787291;29;20044;-82
2022/03/19 12:22:40;;;;;;;28.33;17.50;;;14.80;33.10;;;;;;4781444;29;20331;-82
2022/03/19 12:25:18;;;;;;;27.40;17.08;;;14.70;31.40;;;;;;4795955;29;20193;-82
2022/03/19 12:27:52;;;;;;;32.47;16.98;;;14.60;33.00;;;;;;4788421;29;20293;-81
2022/03/19 12:30:18;;;;;;;28.73;17.95;;;14.70;32.40;;;;;;4798594;29;20068;-81
2022/03/19 12:32:54;;;;;;;33.63;17.27;;;14.70;32.90;;;;;;4796514;29;20149;-82
2022/03/19 12:35:38;;;;;;;26.10;17.27;;;14.80;32.00;;;;;;4781287;29;20338;-82
2022/03/19 12:38:04;;;;;;;29.48;16.42;;;14.80;30.90;;;;;;4791803;29;20100;-81
2022/03/19 12:41:23;;;;;;;30.15;15.95;;;14.70;29.90;;;;;;4822383;29;20037;-81
2022/03/19 12:43:18;;;;;;;37.55;16.58;;;14.60;31.30;;;;;;4869835;29;20409;-81
2022/03/19 12:45:48;;;;;;;31.00;16.17;;;14.80;32.30;;;;;;4845906;29;20106;-81
2022/03/19 12:48:20;;;;;;;31.85;15.52;;;15.00;30.90;;;;;;4855779;29;20037;-82
2022/03/19 12:50:55;;;;;;;23.73;14.10;;;15.10;31.10;;;;;;4870414;29;20041;-81
2022/03/19 12:53:35;;;;;;;28.75;15.55;;;15.20;30.70;;;;;;4855757;29;20088;-81
2022/03/19 12:56:11;;;;;;;30.67;17.02;;;15.20;30.70;;;;;;4847553;29;20025;-82
2022/03/19 12:58:46;;;;;;;25.50;14.13;;;15.30;31.10;;;;;;4863588;29;20028;-81
2022/03/19 13:01:13;;;;;;;22.60;14.35;;;15.40;30.50;;;;;;4839627;29;20109;-80
2022/03/19 13:03:39;;;;;;;;;;;15.60;30.50;;;;;;4872395;29;20206;-81
2022/03/19 13:06:05;;;;;;;23.90;13.83;;;15.70;28.20;;;;;;4847927;29;19915;-81
2022/03/19 13:08:50;;;;;;;22.42;13.55;;;15.70;28.90;;;;;;4825685;29;20341;-81
2022/03/19 13:11:17;;;;;;;19.33;13.55;;;15.50;28.50;;;;;;4866199;29;20033;-81
2022/03/19 13:13:44;;;;;;;;;;;15.60;29.70;;;;;;4846714;29;20041;-82
2022/03/19 13:16:12;;;;;;;33.75;14.98;;;15.80;28.90;;;;;;4855590;29;19908;-81
2022/03/19 13:18:40;;;;;;;;;;;15.80;29.50;;;;;;4853346;29;20394;-81
2022/03/19 13:21:09;;;;;;;24.50;14.82;;;15.70;29.70;;;;;;4817149;29;20227;-81
2022/03/19 13:23:41;;;;;;;31.25;16.67;;;15.60;29.50;;;;;;4852106;29;20034;-80
2022/03/19 13:26:12;;;;;;;33.28;16.70;;;15.50;29.40;;;;;;4837827;29;20033;-82
2022/03/19 13:29:02;;;;;;;26.00;15.90;;;15.70;30.10;;;;;;4852995;29;20124;-81
2022/03/19 13:31:28;;;;;;;37.95;16.70;;;15.70;30.00;;;;;;4848537;29;20038;-81
2022/03/19 13:34:03;;;;;;;28.25;18.42;;;15.70;30.40;;;;;;4836218;29;20049;-81
2022/03/19 13:36:32;;;;;;;28.85;16.50;;;15.80;30.10;;;;;;4869079;29;20081;-82
2022/03/19 13:39:00;;;;;;;30.23;18.08;;;15.50;30.40;;;;;;4834488;29;20100;-82
2022/03/19 13:41:27;;;;;;;29.63;16.77;;;15.60;30.80;;;;;;4838018;29;20255;-82
2022/03/19 13:43:53;;;;;;;28.83;17.83;;;15.80;31.20;;;;;;4837164;29;20288;-82
2022/03/19 13:46:22;;;;;;;33.28;18.20;;;16.00;31.10;;;;;;4848548;29;20053;-82
2022/03/19 13:48:49;;;;;;;32.05;18.70;;;16.10;29.70;;;;;;4838097;29;20104;-81
2022/03/19 13:51:16;;;;;;;27.83;17.67;;;16.00;30.30;;;;;;4827548;29;20106;-82
2022/03/19 13:53:52;;;;;;;25.30;16.42;;;16.10;30.00;;;;;;4835736;29;20358;-84
2022/03/19 13:56:18;;;;;;;29.35;18.85;;;16.00;30.90;;;;;;4822300;29;20132;-84
2022/03/19 13:59:01;;;;;;;27.85;17.67;;;16.00;30.40;;;;;;4827162;29;20022;-84
2022/03/19 14:01:34;;;;;;;33.90;20.33;;;16.00;31.00;;;;;;4852722;29;20030;-84
2022/03/19 14:04:00;;;;;;;36.80;21.67;;;15.90;30.60;;;;;;4805259;29;20045;-84
2022/03/19 14:06:37;;;;;;;32.30;21.10;;;15.80;32.00;;;;;;4837165;29;20108;-84
2022/03/19 14:09:05;;;;;;;34.92;23.05;;;15.90;32.20;;;;;;4846860;29;20045;-84
2022/03/19 14:11:39;;;;;;;35.83;20.35;;;16.00;32.20;;;;;;4836058;29;20321;-84
2022/03/19 14:14:06;;;;;;;39.33;23.17;;;16.10;33.00;;;;;;4849776;29;20038;-84
2022/03/19 14:16:32;;;;;;;36.55;22.60;;;16.10;32.70;;;;;;4833698;29;20375;-84
2022/03/19 14:19:02;;;;;;;37.22;23.83;;;16.10;32.30;;;;;;4837389;29;20103;-84
2022/03/19 14:21:28;;;;;;;42.45;24.35;;;16.10;33.40;;;;;;4837924;29;20033;-83
2022/03/19 14:23:55;;;;;;;39.30;24.17;;;16.00;33.20;;;;;;4852943;29;20037;-84
2022/03/19 14:26:21;;;;;;;40.10;23.63;;;15.90;32.90;;;;;;4841020;29;20337;-85
2022/03/19 14:28:49;;;;;;;35.97;24.05;;;15.90;33.00;;;;;;4839945;29;20037;-83
2022/03/19 14:31:17;;;;;;;37.92;22.92;;;15.90;32.40;;;;;;4841042;29;20274;-84
2022/03/19 14:33:46;;;;;;;36.80;23.45;;;15.80;33.80;;;;;;4840748;29;20061;-85
2022/03/19 14:36:12;;;;;;;41.33;25.02;;;15.80;33.20;;;;;;4839915;29;20037;-85
2022/03/19 14:38:43;;;;;;;41.58;26.27;;;15.90;34.30;;;;;;4840382;29;20037;-84
2022/03/19 14:41:11;;;;;;;42.35;25.83;;;16.00;34.70;;;;;;4834315;29;20062;-84
2022/03/19 14:43:39;;;;;;;43.83;26.08;;;16.20;34.10;;;;;;4852069;29;20113;-84
2022/03/19 14:46:10;;;;;;;44.25;26.35;;;16.00;34.20;;;;;;4851525;29;20053;-84
2022/03/19 14:48:37;;;;;;;43.08;25.92;;;15.90;34.40;;;;;;4820899;29;20096;-83
2022/03/19 14:51:06;;;;;;;44.63;27.42;;;15.70;34.90;;;;;;4833310;29;20233;-83
2022/03/19 14:53:39;;;;;;;49.17;26.55;;;15.60;36.50;;;;;;4844096;29;20049;-82
2022/03/19 14:56:08;;;;;;;44.40;28.33;;;15.70;36.00;;;;;;4834981;29;20246;-81
2022/03/19 14:58:34;;;;;;;46.20;28.83;;;15.80;36.80;;;;;;4852067;29;20106;-82
2022/03/19 15:01:03;;;;;;;52.40;30.53;;;16.00;36.80;;;;;;4852100;29;20070;-84
2022/03/19 15:03:29;;;;;;;45.42;30.15;;;16.00;37.20;;;;;;4835900;29;20170;-83
2022/03/19 15:05:55;;;;;;;45.13;28.92;;;15.80;37.30;;;;;;4869229;29;20322;-84
2022/03/19 15:08:21;;;;;;;42.67;28.20;;;15.70;37.70;;;;;;4854129;29;20045;-84
2022/03/19 15:10:48;;;;;;;47.88;30.85;;;15.70;38.00;;;;;;4835669;29;20332;-83
2022/03/19 15:13:20;;;;;;;45.58;30.45;;;15.70;38.50;;;;;;4854063;29;20114;-83
2022/03/19 15:15:47;;;;;;;44.78;29.70;;;15.60;38.30;;;;;;4840326;29;20068;-84
2022/03/19 15:18:13;;;;;;;48.60;30.30;;;15.50;38.60;;;;;;4825447;29;20093;-84
2022/03/19 15:20:44;;;;;;;49.07;31.37;;;15.40;39.00;;;;;;4855765;29;20112;-84
2022/03/19 15:23:10;;;;;;;51.83;31.55;;;15.30;39.00;;;;;;4854636;29;20044;-82
2022/03/19 15:25:36;;;;;;;49.22;31.45;;;15.20;39.00;;;;;;4855722;29;20048;-82
2022/03/19 15:28:03;;;;;;;51.83;31.60;;;15.20;39.50;;;;;;4840184;29;20098;-83
2022/03/19 15:30:28;;;;;;;47.47;31.17;;;15.20;39.10;;;;;;4839774;29;20053;-83
2022/03/19 15:32:54;;;;;;;47.45;31.27;;;15.00;39.60;;;;;;4835020;29;20053;-83
2022/03/19 15:35:21;;;;;;;48.28;31.77;;;14.90;40.00;;;;;;4841974;29;20121;-83
2022/03/19 15:37:49;;;;;;;49.83;32.13;;;14.90;39.70;;;;;;4867151;29;20113;-83
2022/03/19 15:40:16;;;;;;;55.72;31.45;;;14.90;39.70;;;;;;4839132;29;20353;-83
2022/03/19 15:42:42;;;;;;;46.55;30.20;;;14.70;39.80;;;;;;4854248;29;20041;-83
2022/03/19 15:45:10;;;;;;;50.97;31.73;;;14.70;39.70;;;;;;4845319;29;20038;-81
2022/03/19 15:47:37;;;;;;;55.72;32.20;;;14.50;40.50;;;;;;4845983;29;20053;-81
2022/03/19 15:50:08;;;;;;;;;;;14.40;40.20;;;;;;4851993;29;20033;-82
2022/03/19 15:52:35;;;;;;;49.33;29.77;;;14.30;40.10;;;;;;4857548;29;19915;-82
2022/03/19 15:55:01;;;;;;;52.67;29.38;;;14.20;40.00;;;;;;4852709;29;20050;-82
2022/03/19 15:57:27;;;;;;;47.45;29.30;;;14.00;40.20;;;;;;4859354;29;20279;-81
2022/03/19 15:59:52;;;;;;;48.58;31.23;;;13.90;40.50;;;;;;4834489;29;20317;-81
2022/03/19 16:02:18;;;;;;;53.55;32.20;;;13.80;40.80;;;;;;4819670;29;20108;-81
2022/03/19 16:04:44;;;;;;;51.72;32.22;;;13.60;41.00;;;;;;4827361;29;20037;-82
2022/03/19 16:07:11;;;;;;;49.30;31.27;;;13.50;41.10;;;;;;4838263;29;20233;-82
2022/03/19 16:09:37;;;;;;;50.60;31.95;;;13.30;41.70;;;;;;4821137;29;20389;-82
2022/03/19 16:12:03;;;;;;;53.15;32.60;;;13.10;41.90;;;;;;4845091;29;20052;-81
2022/03/19 16:14:29;;;;;;;55.45;33.50;;;13.00;42.10;;;;;;4835996;29;20030;-83
2022/03/19 16:16:55;;;;;;;53.90;32.83;;;12.80;42.50;;;;;;4863682;29;20030;-82
2022/03/19 16:19:21;;;;;;;47.80;31.85;;;12.70;43.20;;;;;;4826926;29;20026;-82
2022/03/19 16:21:46;;;;;;;54.53;33.63;;;12.60;43.50;;;;;;4836775;29;20067;-81
2022/03/19 16:24:12;;;;;;;52.72;33.97;;;12.60;43.60;;;;;;4823735;29;20029;-81
2022/03/19 16:26:38;;;;;;;71.95;40.97;;;12.50;44.10;;;;;;4835418;29;20049;-82
2022/03/19 16:29:05;;;;;;;67.95;42.42;;;12.40;44.40;;;;;;4859655;29;20041;-81
2022/03/19 16:31:31;;;;;;;;;;;12.30;45.00;;;;;;4856351;29;20037;-81
2022/03/19 16:33:57;;;;;;;73.20;40.22;;;12.20;45.60;;;;;;4870354;29;19919;-82
2022/03/19 16:36:23;;;;;;;68.57;39.63;;;12.10;45.60;;;;;;4838546;29;20034;-81
2022/03/19 16:38:48;;;;;;;67.97;39.92;;;12.10;46.10;;;;;;4830825;29;20201;-81
2022/03/19 16:41:14;;;;;;;67.22;40.78;;;11.90;46.10;;;;;;4852677;29;20037;-80